createdAt,value
2019-02-15T00:00:54.095Z,22.20
2019-02-15T00:03:23.438Z,22.57
2019-02-15T00:05:52.819Z,21.30
2019-02-15T00:08:22.152Z,21.37
2019-02-15T00:10:51.504Z,19.20
2019-02-15T00:13:20.842Z,21.43
2019-02-15T00:15:50.158Z,21.97
2019-02-15T00:18:41.522Z,21.90
2019-02-15T00:21:18.953Z,22.20
2019-02-15T00:23:48.296Z,21.83
2019-02-15T00:26:17.647Z,22.33
2019-02-15T00:28:46.992Z,22.27
2019-02-15T00:31:19.411Z,21.60
2019-02-15T00:33:48.743Z,21.97
2019-02-15T00:36:18.087Z,23.00
2019-02-15T00:38:47.458Z,22.23
2019-02-15T00:41:16.955Z,21.23
2019-02-15T00:43:46.318Z,21.50
2019-02-15T00:46:40.412Z,23.13
2019-02-15T00:49:14.259Z,22.07
2019-02-15T00:51:52.193Z,22.27
2019-02-15T00:54:36.052Z,22.03
2019-02-15T00:57:30.477Z,22.20
2019-02-15T01:00:18.740Z,22.73
2019-02-15T01:02:58.902Z,22.30
2019-02-15T01:05:36.131Z,23.03
2019-02-15T01:08:15.699Z,23.20
2019-02-15T01:11:09.795Z,24.40
2019-02-15T01:13:39.151Z,24.90
2019-02-15T01:16:08.475Z,24.30
2019-02-15T01:18:53.176Z,24.33
2019-02-15T01:21:22.517Z,25.70
2019-02-15T01:23:51.971Z,25.07
2019-02-15T01:26:31.648Z,25.93
2019-02-15T01:29:19.932Z,26.07
2019-02-15T01:32:17.682Z,25.03
2019-02-15T01:35:11.174Z,25.77
2019-02-15T01:38:05.355Z,25.73
2019-02-15T01:40:53.651Z,27.23
2019-02-15T01:43:49.059Z,27.07
2019-02-15T01:46:25.011Z,27.10
2019-02-15T01:48:54.356Z,28.17
2019-02-15T01:51:26.625Z,27.73
2019-02-15T01:53:55.951Z,28.03
2019-02-15T01:56:25.502Z,27.83
2019-02-15T01:58:54.867Z,29.50
2019-02-15T02:01:26.487Z,28.00
2019-02-15T02:03:55.846Z,29.73
2019-02-15T02:06:25.190Z,28.87
2019-02-15T02:08:54.743Z,29.47
2019-02-15T02:11:24.070Z,29.13
2019-02-15T02:13:53.415Z,29.53
2019-02-15T02:16:22.823Z,28.60
2019-02-15T02:18:52.155Z,29.87
2019-02-15T02:21:21.585Z,29.77
2019-02-15T02:23:50.909Z,29.87
2019-02-15T02:26:20.284Z,31.10
2019-02-15T02:28:49.620Z,30.23
2019-02-15T02:31:19.383Z,30.30
2019-02-15T02:33:57.362Z,31.17
2019-02-15T02:36:48.234Z,31.20
2019-02-15T02:39:17.585Z,30.37
2019-02-15T02:41:47.958Z,31.27
2019-02-15T02:44:17.302Z,31.40
2019-02-15T02:46:46.789Z,32.60
2019-02-15T02:49:17.563Z,32.43
2019-02-15T02:51:46.942Z,32.87
2019-02-15T02:54:16.268Z,33.83
2019-02-15T02:56:46.750Z,33.23
2019-02-15T02:59:16.069Z,33.90
2019-02-15T03:01:45.398Z,33.40
2019-02-15T03:04:14.724Z,33.57
2019-02-15T03:06:44.077Z,31.53
2019-02-15T03:09:13.454Z,32.80
2019-02-15T03:11:42.747Z,33.17
2019-02-15T03:14:12.257Z,32.97
2019-02-15T03:16:41.652Z,32.03
2019-02-15T03:19:10.978Z,35.00
2019-02-15T03:21:40.353Z,35.00
2019-02-15T03:24:09.726Z,36.50
2019-02-15T03:26:39.057Z,34.50
2019-02-15T03:29:09.711Z,35.83
2019-02-15T03:31:40.563Z,35.67
2019-02-15T03:34:09.930Z,35.73
2019-02-15T03:36:58.315Z,37.30
2019-02-15T03:39:48.955Z,34.37
2019-02-15T03:42:18.359Z,35.37
2019-02-15T03:44:47.737Z,36.60
2019-02-15T03:47:28.400Z,36.00
2019-02-15T03:49:57.717Z,37.37
2019-02-15T03:52:27.082Z,37.33
2019-02-15T03:54:56.414Z,38.50
2019-02-15T03:57:28.935Z,35.60
2019-02-15T03:59:58.286Z,36.73
2019-02-15T04:02:27.719Z,38.70
2019-02-15T04:04:57.090Z,34.80
2019-02-15T04:07:26.452Z,37.20
2019-02-15T04:09:55.847Z,37.10
2019-02-15T04:12:25.414Z,37.53
2019-02-15T04:14:54.772Z,38.27
2019-02-15T04:17:24.154Z,39.53
2019-02-15T04:19:53.497Z,40.57
2019-02-15T04:22:22.917Z,37.93
2019-02-15T04:24:52.283Z,38.77
2019-02-15T04:27:21.651Z,38.97
2019-02-15T04:29:52.789Z,38.60
2019-02-15T04:32:23.606Z,38.33
2019-02-15T04:34:52.974Z,39.50
2019-02-15T04:37:22.360Z,40.37
2019-02-15T04:39:51.725Z,40.43
2019-02-15T04:42:21.095Z,40.67
2019-02-15T04:44:51.923Z,40.57
2019-02-15T04:47:21.283Z,41.50
2019-02-15T04:49:50.622Z,39.57
2019-02-15T04:52:19.999Z,41.80
2019-02-15T04:54:49.345Z,40.97
2019-02-15T04:57:18.791Z,40.77
2019-02-15T04:59:48.139Z,41.43
2019-02-15T05:02:20.590Z,41.47
2019-02-15T05:04:49.932Z,41.37
2019-02-15T05:07:19.311Z,41.33
2019-02-15T05:09:48.695Z,41.80
2019-02-15T05:12:18.068Z,40.30
2019-02-15T05:14:53.138Z,40.53
2019-02-15T05:17:18.475Z,41.23
2019-02-15T05:19:47.861Z,41.30
2019-02-15T05:22:17.192Z,43.13
2019-02-15T05:24:46.655Z,42.37
2019-02-15T05:27:16.023Z,43.20
2019-02-15T05:29:45.370Z,43.37
2019-02-15T05:32:14.716Z,41.23
2019-02-15T05:34:44.073Z,41.93
2019-02-15T05:37:13.465Z,40.97
2019-02-15T05:39:42.867Z,43.60
2019-02-15T05:42:12.203Z,43.27
2019-02-15T05:44:41.568Z,42.93
2019-02-15T05:47:12.753Z,43.53
2019-02-15T05:49:43.464Z,43.87
2019-02-15T05:52:12.826Z,42.87
2019-02-15T05:54:43.170Z,41.37
2019-02-15T05:57:12.587Z,42.23
2019-02-15T05:59:41.923Z,40.27
2019-02-15T06:02:12.291Z,40.57
2019-02-15T06:04:41.704Z,41.67
2019-02-15T06:07:11.067Z,40.53
2019-02-15T06:09:41.549Z,41.23
2019-02-15T06:12:10.887Z,42.27
2019-02-15T06:14:42.055Z,41.70
2019-02-15T06:17:11.393Z,42.87
2019-02-15T06:19:40.740Z,41.93
2019-02-15T06:22:10.674Z,42.43
2019-02-15T06:24:40.021Z,41.13
2019-02-15T06:27:09.443Z,39.53
2019-02-15T06:29:45.941Z,38.53
2019-02-15T06:32:15.256Z,38.63
2019-02-15T06:34:44.607Z,39.87
2019-02-15T06:37:13.997Z,40.30
2019-02-15T06:39:43.342Z,40.73
2019-02-15T06:42:12.681Z,41.33
2019-02-15T06:44:42.052Z,41.13
2019-02-15T06:47:11.506Z,40.57
2019-02-15T06:49:40.883Z,40.97
2019-02-15T06:52:11.688Z,39.87
2019-02-15T06:54:41.054Z,39.17
2019-02-15T06:57:10.438Z,41.23
2019-02-15T07:00:04.790Z,40.73
2019-02-15T07:02:38.729Z,38.13
2019-02-15T07:05:33.475Z,39.17
2019-02-15T07:08:02.944Z,38.27
2019-02-15T07:10:32.297Z,40.30
2019-02-15T07:13:01.648Z,39.00
2019-02-15T07:15:33.752Z,40.63
2019-02-15T07:18:02.171Z,40.20
2019-02-15T07:20:31.532Z,39.53
2019-02-15T07:23:00.871Z,40.67
2019-02-15T07:25:30.225Z,42.20
2019-02-15T07:27:59.593Z,41.13
2019-02-15T07:30:28.956Z,41.30
2019-02-15T07:33:00.780Z,40.73
2019-02-15T07:35:30.142Z,40.30
2019-02-15T07:37:59.534Z,41.23
2019-02-15T07:40:28.852Z,40.60
2019-02-15T07:42:58.213Z,43.33
2019-02-15T07:45:27.606Z,42.17
2019-02-15T07:47:58.577Z,43.10
2019-02-15T07:50:28.091Z,41.97
2019-02-15T07:52:59.310Z,43.70
2019-02-15T07:55:34.465Z,43.00
2019-02-15T07:58:03.811Z,43.23
2019-02-15T08:00:33.153Z,43.30
2019-02-15T08:03:02.642Z,42.43
2019-02-15T08:05:32.004Z,43.83
2019-02-15T08:08:03.171Z,42.00
2019-02-15T08:10:32.674Z,43.33
2019-02-15T08:13:07.879Z,42.07
2019-02-15T08:15:37.230Z,43.03
2019-02-15T08:18:06.583Z,42.37
2019-02-15T08:20:35.983Z,42.40
2019-02-15T08:23:05.328Z,41.27
2019-02-15T08:25:34.718Z,40.03
2019-02-15T08:28:04.118Z,40.70
2019-02-15T08:30:34.554Z,41.00
2019-02-15T08:33:03.933Z,40.43
2019-02-15T08:35:33.412Z,40.50
2019-02-15T08:38:02.793Z,42.30
2019-02-15T08:40:38.012Z,44.00
2019-02-15T08:43:07.432Z,42.80
2019-02-15T08:45:37.796Z,41.87
2019-02-15T08:48:07.169Z,43.87
2019-02-15T08:50:36.525Z,43.00
2019-02-15T08:53:05.878Z,42.70
2019-02-15T08:55:35.244Z,42.57
2019-02-15T08:58:04.571Z,42.33
2019-02-15T09:00:35.904Z,39.87
2019-02-15T09:03:05.262Z,41.40
2019-02-15T09:05:34.602Z,44.23
2019-02-15T09:08:03.946Z,40.33
2019-02-15T09:10:34.366Z,40.70
2019-02-15T09:13:03.712Z,43.07
2019-02-15T09:15:33.041Z,40.00
2019-02-15T09:18:03.413Z,40.40
2019-02-15T09:20:32.767Z,40.40
2019-02-15T09:23:02.122Z,40.37
2019-02-15T09:25:31.489Z,39.03
2019-02-15T09:28:19.786Z,40.73
2019-02-15T09:30:52.336Z,39.40
2019-02-15T09:33:22.037Z,39.47
2019-02-15T09:35:51.468Z,39.20
2019-02-15T09:38:20.844Z,39.60
2019-02-15T09:40:50.246Z,39.17
2019-02-15T09:43:19.620Z,38.70
2019-02-15T09:45:48.988Z,39.60
2019-02-15T09:48:18.372Z,39.80
2019-02-15T09:50:48.521Z,37.53
2019-02-15T09:53:17.899Z,38.07
2019-02-15T09:55:47.300Z,36.63
2019-02-15T09:58:16.695Z,37.33
2019-02-15T10:00:46.086Z,36.83
2019-02-15T10:03:15.486Z,36.90
2019-02-15T10:05:44.868Z,36.60
2019-02-15T10:08:14.255Z,36.70
2019-02-15T10:10:44.745Z,37.17
2019-02-15T10:13:14.136Z,36.43
2019-02-15T10:15:43.506Z,36.27
2019-02-15T10:18:12.862Z,36.70
2019-02-15T10:20:42.236Z,36.17
2019-02-15T10:23:12.558Z,35.20
2019-02-15T10:25:41.910Z,34.07
2019-02-15T10:28:11.276Z,35.00
2019-02-15T10:30:40.641Z,35.10
2019-02-15T10:33:09.971Z,33.83
2019-02-15T10:35:40.359Z,34.07
2019-02-15T10:38:09.834Z,35.50
2019-02-15T10:40:39.221Z,34.07
2019-02-15T10:43:08.580Z,34.03
2019-02-15T10:45:37.923Z,30.80
2019-02-15T10:48:07.267Z,31.37
2019-02-15T10:50:36.619Z,30.23
2019-02-15T10:53:05.962Z,30.63
2019-02-15T10:55:35.351Z,29.40
2019-02-15T10:58:04.685Z,28.53
2019-02-15T11:00:34.062Z,25.67
2019-02-15T11:03:03.397Z,26.80
2019-02-15T11:05:33.771Z,26.57
2019-02-15T11:08:04.109Z,25.97
2019-02-15T11:10:33.481Z,25.73
2019-02-15T11:13:02.830Z,26.53
2019-02-15T11:15:33.190Z,25.07
2019-02-15T11:18:02.580Z,23.13
2019-02-15T11:20:31.936Z,21.67
2019-02-15T11:23:01.714Z,21.03
2019-02-15T11:25:31.047Z,18.77
2019-02-15T11:28:00.486Z,18.73
2019-02-15T11:30:29.852Z,18.90
2019-02-15T11:32:59.193Z,18.40
2019-02-15T11:35:28.608Z,17.53
2019-02-15T11:37:57.962Z,16.17
2019-02-15T11:40:27.338Z,18.63
2019-02-15T11:42:56.690Z,17.37
2019-02-15T11:45:26.070Z,16.87
2019-02-15T11:47:55.426Z,16.67
2019-02-15T11:50:24.793Z,18.57
2019-02-15T11:52:54.143Z,17.30
2019-02-15T11:55:23.833Z,16.50
2019-02-15T11:57:53.188Z,16.47
2019-02-15T12:00:27.765Z,16.57
2019-02-15T12:02:57.110Z,17.10
2019-02-15T12:05:26.459Z,15.13
2019-02-15T12:07:55.831Z,16.47
2019-02-15T12:10:25.291Z,16.17
2019-02-15T12:12:54.639Z,16.30
2019-02-15T12:15:24.110Z,15.67
2019-02-15T12:17:53.446Z,16.13
2019-02-15T12:20:22.794Z,15.77
2019-02-15T12:22:52.142Z,15.70
2019-02-15T12:25:21.519Z,15.33
2019-02-15T12:27:50.851Z,15.13
2019-02-15T12:30:20.326Z,15.37
2019-02-15T12:32:49.705Z,15.00
2019-02-15T12:35:19.056Z,15.97
2019-02-15T12:37:48.439Z,15.80
2019-02-15T12:40:17.811Z,15.77
2019-02-15T12:42:47.169Z,14.80
2019-02-15T12:45:16.524Z,15.20
2019-02-15T12:47:45.872Z,15.57
2019-02-15T12:50:15.792Z,15.73
2019-02-15T12:52:45.237Z,15.30
2019-02-15T12:55:14.614Z,15.70
2019-02-15T12:57:43.947Z,15.63
2019-02-15T13:00:14.139Z,15.10
2019-02-15T13:02:43.495Z,15.03
2019-02-15T13:05:12.952Z,15.33
2019-02-15T13:07:42.332Z,15.87
2019-02-15T13:10:13.922Z,15.57
2019-02-15T13:12:43.256Z,15.50
2019-02-15T13:15:12.729Z,15.23
2019-02-15T13:17:42.087Z,14.10
2019-02-15T13:20:11.512Z,14.70
2019-02-15T13:22:40.890Z,16.17
2019-02-15T13:25:10.252Z,16.17
2019-02-15T13:27:39.615Z,14.23
2019-02-15T13:30:10.294Z,14.33
2019-02-15T13:32:39.656Z,14.60
2019-02-15T13:35:10.467Z,14.97
2019-02-15T13:37:39.828Z,15.70
2019-02-15T13:40:09.768Z,14.80
2019-02-15T13:42:39.463Z,15.13
2019-02-15T13:45:09.852Z,15.03
2019-02-15T13:47:39.198Z,14.63
2019-02-15T13:50:09.772Z,15.00
2019-02-15T13:52:39.297Z,14.80
2019-02-15T13:55:08.881Z,15.37
2019-02-15T13:57:38.239Z,14.40
2019-02-15T14:00:08.280Z,14.50
2019-02-15T14:02:37.638Z,14.03
2019-02-15T14:05:09.535Z,13.30
2019-02-15T14:07:38.234Z,13.17
2019-02-15T14:10:08.849Z,12.83
2019-02-15T14:12:38.256Z,10.97
2019-02-15T14:15:08.178Z,12.33
2019-02-15T14:17:44.185Z,11.30
2019-02-15T14:20:09.722Z,9.97
2019-02-15T14:22:39.030Z,9.97
2019-02-15T14:25:08.783Z,10.23
2019-02-15T14:27:38.173Z,6.03
2019-02-15T14:30:08.466Z,5.93
2019-02-15T14:32:37.807Z,5.50
2019-02-15T14:35:07.992Z,5.83
2019-02-15T14:37:37.342Z,5.30
2019-02-15T14:40:06.885Z,5.40
2019-02-15T14:42:36.266Z,5.70
2019-02-15T14:45:05.791Z,5.50
2019-02-15T14:47:35.151Z,5.00
2019-02-15T14:50:04.496Z,5.43
2019-02-15T14:52:33.835Z,5.50
2019-02-15T14:55:03.185Z,5.57
2019-02-15T14:57:32.544Z,5.90
2019-02-15T15:00:01.891Z,5.03
2019-02-15T15:02:31.254Z,5.10
2019-02-15T15:05:00.646Z,4.87
2019-02-15T15:07:29.953Z,5.27
2019-02-15T15:09:59.282Z,5.47
2019-02-15T15:12:28.766Z,5.33
2019-02-15T15:14:58.093Z,5.17
2019-02-15T15:17:27.438Z,5.50
2019-02-15T15:19:56.769Z,6.20
2019-02-15T15:22:26.100Z,5.70
2019-02-15T15:24:55.463Z,5.50
2019-02-15T15:27:24.835Z,6.03
2019-02-15T15:29:54.208Z,5.93
2019-02-15T15:32:23.557Z,5.13
2019-02-15T15:34:52.897Z,5.80
2019-02-15T15:37:22.220Z,6.00
2019-02-15T15:39:51.579Z,6.00
2019-02-15T15:42:21.026Z,5.07
2019-02-15T15:44:50.355Z,5.93
2019-02-15T15:47:19.726Z,5.73
2019-02-15T15:49:49.140Z,5.50
2019-02-15T15:52:18.475Z,5.67
2019-02-15T15:54:48.077Z,5.97
2019-02-15T15:57:17.452Z,5.17
2019-02-15T15:59:46.769Z,5.97
2019-02-15T16:02:18.443Z,5.50
2019-02-15T16:04:47.649Z,5.47
2019-02-15T16:07:17.037Z,5.73
2019-02-15T16:09:46.375Z,5.93
2019-02-15T16:12:15.729Z,5.83
2019-02-15T16:14:45.105Z,5.43
2019-02-15T16:17:14.452Z,5.47
2019-02-15T16:19:49.463Z,6.00
2019-02-15T16:22:14.861Z,6.03
2019-02-15T16:24:44.729Z,5.40
2019-02-15T16:27:14.141Z,5.80
2019-02-15T16:29:43.507Z,5.50
2019-02-15T16:32:12.886Z,6.00
2019-02-15T16:34:42.245Z,5.73
2019-02-15T16:37:11.634Z,5.83
2019-02-15T16:39:41.022Z,5.80
2019-02-15T16:42:10.375Z,6.23
2019-02-15T16:44:39.706Z,5.97
2019-02-15T16:47:09.027Z,5.67
2019-02-15T16:49:38.375Z,5.70
2019-02-15T16:52:07.783Z,6.00
2019-02-15T16:54:37.233Z,6.37
2019-02-15T16:57:06.541Z,6.77
2019-02-15T16:59:35.894Z,6.53
2019-02-15T17:02:05.249Z,6.30
2019-02-15T17:04:34.615Z,6.37
2019-02-15T17:07:04.095Z,7.43
2019-02-15T17:09:33.451Z,6.97
2019-02-15T17:12:03.274Z,7.03
2019-02-15T17:14:32.659Z,6.00
2019-02-15T17:17:02.069Z,6.00
2019-02-15T17:19:31.420Z,6.20
2019-02-15T17:22:00.771Z,5.83
2019-02-15T17:24:30.120Z,5.73
2019-02-15T17:26:59.491Z,5.90
2019-02-15T17:29:28.856Z,5.53
2019-02-15T17:31:58.223Z,5.90
2019-02-15T17:34:27.595Z,6.10
2019-02-15T17:36:56.920Z,6.63
2019-02-15T17:39:26.273Z,6.30
2019-02-15T17:41:56.063Z,6.97
2019-02-15T17:44:25.603Z,5.57
2019-02-15T17:46:54.989Z,6.63
2019-02-15T17:49:25.978Z,6.17
2019-02-15T17:51:55.340Z,7.13
2019-02-15T17:54:24.983Z,7.10
2019-02-15T17:56:58.376Z,7.60
2019-02-15T17:59:28.976Z,8.13
2019-02-15T18:01:58.346Z,11.53
2019-02-15T18:04:27.799Z,12.00
2019-02-15T18:06:57.266Z,17.30
2019-02-15T18:09:26.620Z,18.00
2019-02-15T18:11:55.980Z,18.50
2019-02-15T18:14:25.366Z,17.80
2019-02-15T18:16:54.738Z,15.53
2019-02-15T18:19:24.115Z,15.10
2019-02-15T18:21:53.474Z,14.77
2019-02-15T18:24:22.820Z,14.53
2019-02-15T18:26:52.147Z,14.23
2019-02-15T18:29:21.698Z,13.90
2019-02-15T18:31:51.092Z,14.07
2019-02-15T18:34:20.466Z,14.03
2019-02-15T18:36:49.821Z,14.67
2019-02-15T18:39:19.207Z,15.33
2019-02-15T18:41:48.574Z,14.23
2019-02-15T18:44:17.976Z,14.53
2019-02-15T18:46:47.353Z,14.57
2019-02-15T18:49:19.285Z,14.20
2019-02-15T18:51:48.071Z,14.33
2019-02-15T18:54:17.769Z,13.27
2019-02-15T18:56:47.193Z,13.90
2019-02-15T18:59:16.578Z,14.43
2019-02-15T19:01:45.975Z,14.10
2019-02-15T19:04:15.321Z,13.67
2019-02-15T19:06:44.711Z,14.67
2019-02-15T19:09:14.598Z,15.23
2019-02-15T19:11:44.055Z,14.47
2019-02-15T19:14:13.401Z,14.50
2019-02-15T19:16:42.746Z,15.00
2019-02-15T19:19:12.214Z,16.30
2019-02-15T19:21:41.673Z,14.87
2019-02-15T19:24:11.067Z,15.97
2019-02-15T19:26:40.447Z,15.97
2019-02-15T19:29:09.803Z,16.30
2019-02-15T19:31:39.163Z,17.57
2019-02-15T19:34:08.503Z,15.07
2019-02-15T19:36:37.909Z,14.87
2019-02-15T19:39:07.676Z,15.10
2019-02-15T19:41:37.103Z,15.23
2019-02-15T19:44:06.487Z,15.40
2019-02-15T19:46:35.992Z,15.57
2019-02-15T19:49:05.942Z,15.80
2019-02-15T19:51:35.971Z,15.83
2019-02-15T19:54:05.468Z,16.43
2019-02-15T19:56:34.813Z,16.23
2019-02-15T19:59:04.142Z,16.63
2019-02-15T20:01:33.496Z,17.27
2019-02-15T20:04:02.859Z,17.13
2019-02-15T20:06:32.362Z,17.50
2019-02-15T20:09:01.732Z,17.07
2019-02-15T20:11:31.129Z,17.17
2019-02-15T20:14:00.752Z,17.87
2019-02-15T20:16:30.425Z,19.30
2019-02-15T20:18:59.876Z,19.07
2019-02-15T20:21:29.350Z,20.33
2019-02-15T20:23:59.036Z,19.57
2019-02-15T20:26:28.550Z,20.50
2019-02-15T20:28:58.080Z,20.10
2019-02-15T20:31:27.704Z,19.97
2019-02-15T20:33:57.114Z,18.70
2019-02-15T20:36:26.498Z,19.87
2019-02-15T20:38:56.169Z,20.13
2019-02-15T20:41:25.882Z,19.60
2019-02-15T20:43:56.341Z,20.90
2019-02-15T20:46:25.919Z,19.30
2019-02-15T20:49:04.086Z,19.50
2019-02-15T20:51:26.441Z,19.97
2019-02-15T20:53:56.096Z,19.87
2019-02-15T20:56:26.504Z,20.33
2019-02-15T20:58:56.011Z,21.00
2019-02-15T21:01:26.442Z,20.07
2019-02-15T21:03:57.485Z,20.20
2019-02-15T21:06:26.940Z,19.00
2019-02-15T21:08:56.405Z,20.23
2019-02-15T21:11:26.025Z,20.27
2019-02-15T21:13:55.538Z,20.13
2019-02-15T21:16:26.154Z,20.87
2019-02-15T21:18:55.645Z,19.73
2019-02-15T21:21:25.185Z,19.87
2019-02-15T21:23:55.808Z,18.73
2019-02-15T21:26:25.513Z,20.37
2019-02-15T21:28:55.185Z,19.60
2019-02-15T21:31:33.666Z,20.77
2019-02-15T21:34:03.130Z,21.00
2019-02-15T21:36:32.681Z,21.70
2019-02-15T21:39:02.102Z,21.73
2019-02-15T21:41:31.448Z,22.60
2019-02-15T21:44:00.888Z,23.00
2019-02-15T21:46:30.392Z,22.83
2019-02-15T21:48:59.931Z,23.10
2019-02-15T21:51:29.597Z,23.97
2019-02-15T21:53:59.143Z,22.70
2019-02-15T21:56:28.667Z,24.03
2019-02-15T21:58:58.156Z,24.43
2019-02-15T22:01:27.720Z,24.87
2019-02-15T22:03:57.054Z,23.30
2019-02-15T22:06:27.821Z,23.13
2019-02-15T22:08:57.315Z,23.50
2019-02-15T22:11:26.794Z,23.33
2019-02-15T22:13:56.242Z,23.57
2019-02-15T22:16:25.757Z,23.77
2019-02-15T22:18:55.378Z,24.93
2019-02-15T22:21:24.966Z,23.77
2019-02-15T22:23:54.474Z,26.33
2019-02-15T22:26:23.949Z,23.13
2019-02-15T22:28:53.581Z,22.63
2019-02-15T22:31:23.203Z,24.23
2019-02-15T22:33:52.623Z,25.00
2019-02-15T22:36:23.466Z,23.53
2019-02-15T22:38:52.899Z,23.63
2019-02-15T22:41:22.303Z,23.27
2019-02-15T22:43:51.672Z,23.63
2019-02-15T22:46:21.104Z,25.40
2019-02-15T22:48:50.585Z,25.10
2019-02-15T22:51:19.900Z,23.50
2019-02-15T22:53:49.269Z,24.00
2019-02-15T22:56:18.642Z,23.27
2019-02-15T22:58:48.067Z,23.67
2019-02-15T23:01:19.291Z,24.53
2019-02-15T23:03:48.704Z,23.23
2019-02-15T23:06:18.078Z,22.83
2019-02-15T23:08:47.484Z,23.03
2019-02-15T23:11:37.721Z,23.37
2019-02-15T23:14:07.128Z,22.00
2019-02-15T23:16:36.550Z,22.67
2019-02-15T23:19:05.958Z,22.80
2019-02-15T23:21:35.396Z,22.23
2019-02-15T23:24:04.791Z,22.50
2019-02-15T23:26:34.194Z,23.03
2019-02-15T23:29:03.581Z,22.67
2019-02-15T23:31:32.969Z,22.60
2019-02-15T23:34:02.730Z,21.80
2019-02-15T23:36:32.089Z,22.17
2019-02-15T23:39:01.513Z,22.27
2019-02-15T23:41:30.855Z,22.00
2019-02-15T23:44:00.276Z,22.03
2019-02-15T23:46:29.732Z,21.27
2019-02-15T23:48:59.111Z,21.23
2019-02-15T23:51:28.522Z,21.80
2019-02-15T23:53:57.913Z,20.73
2019-02-15T23:56:27.270Z,19.40
2019-02-15T23:58:56.675Z,20.83
